Commerce City, Colorado
Current Conditions -  °F | °C
As of 5:58 PM on Monday 22 Dec 2014 (Local Time) from KBKF Reporting Station
Broken Clouds Broken Clouds  
Wind Chill: 20°   Ceiling: 11000
Heat Index: 29°   Visibility: 10mi
Dew Point: 21°   Wind: 10mph
Humidity: 72%   Direction: 340°NNW
Pressure: 29.77"   Gusts: NA
Location:  39.81°N, 104.92°W
Report Text: KBKF 230058Z 34009KT 10SM SCT060 BKN110 M01/M06 A2977 RMK AO2A SLP098 T10151060
Loading
Personal Weather Stations






























Interactive Weather Map New forecast layout! Learn more

10-Day Weather Forecast

Advertisements
Track Severe Weather on mobile